sensor_id;sensor_type;location;lat;lon;timestamp;pressure;altitude;pressure_sealevel;temperature;humidity
15914;BME280;8055;51.930;8.840;2023-02-11T00:01:12;77979.38;;;-145.72;100.00
15914;BME280;8055;51.930;8.840;2023-02-11T00:03:40;77973.16;;;-145.72;100.00
15914;BME280;8055;51.930;8.840;2023-02-11T00:06:07;77973.16;;;-145.72;100.00
15914;BME280;8055;51.930;8.840;2023-02-11T00:08:34;77960.72;;;-145.72;100.00
15914;BME280;8055;51.930;8.840;2023-02-11T00:10:59;77964.88;;;-145.72;100.00
15914;BME280;8055;51.930;8.840;2023-02-11T00:13:25;77973.16;;;-145.72;100.00
15914;BME280;8055;51.930;8.840;2023-02-11T00:15:50;77979.38;;;-145.72;100.00
15914;BME280;8055;51.930;8.840;2023-02-11T00:18:16;77983.50;;;-145.72;100.00
15914;BME280;8055;51.930;8.840;2023-02-11T00:20:42;77987.66;;;-145.72;100.00
15914;BME280;8055;51.930;8.840;2023-02-11T00:23:07;77981.44;;;-145.72;100.00
15914;BME280;8055;51.930;8.840;2023-02-11T00:25:33;77983.50;;;-145.72;100.00
15914;BME280;8055;51.930;8.840;2023-02-11T00:27:58;77971.09;;;-145.72;100.00
15914;BME280;8055;51.930;8.840;2023-02-11T00:30:25;77964.88;;;-145.72;100.00
15914;BME280;8055;51.930;8.840;2023-02-11T00:32:50;77971.09;;;-145.72;100.00
15914;BME280;8055;51.930;8.840;2023-02-11T00:35:16;77966.94;;;-145.72;100.00
15914;BME280;8055;51.930;8.840;2023-02-11T00:37:41;77969.03;;;-145.72;100.00
15914;BME280;8055;51.930;8.840;2023-02-11T00:40:07;77962.81;;;-145.72;100.00
15914;BME280;8055;51.930;8.840;2023-02-11T00:42:33;77962.81;;;-145.72;100.00
15914;BME280;8055;51.930;8.840;2023-02-11T00:45:00;77969.03;;;-145.72;100.00
15914;BME280;8055;51.930;8.840;2023-02-11T00:47:26;77973.16;;;-145.72;100.00
15914;BME280;8055;51.930;8.840;2023-02-11T00:49:51;77969.03;;;-145.72;100.00
15914;BME280;8055;51.930;8.840;2023-02-11T00:52:17;77973.16;;;-145.72;100.00
15914;BME280;8055;51.930;8.840;2023-02-11T00:54:42;77973.16;;;-145.72;100.00
15914;BME280;8055;51.930;8.840;2023-02-11T00:57:07;77962.81;;;-145.72;100.00
15914;BME280;8055;51.930;8.840;2023-02-11T00:59:33;77969.03;;;-145.72;100.00
15914;BME280;8055;51.930;8.840;2023-02-11T01:01:58;77975.22;;;-145.72;100.00
15914;BME280;8055;51.930;8.840;2023-02-11T01:04:24;77977.31;;;-145.72;100.00
15914;BME280;8055;51.930;8.840;2023-02-11T01:06:49;77979.38;;;-145.72;100.00
15914;BME280;8055;51.930;8.840;2023-02-11T01:09:14;77989.72;;;-145.72;100.00
15914;BME280;8055;51.930;8.840;2023-02-11T01:11:40;77998.00;;;-145.72;100.00
15914;BME280;8055;51.930;8.840;2023-02-11T01:14:05;77998.00;;;-145.72;100.00
15914;BME280;8055;51.930;8.840;2023-02-11T01:16:31;78006.28;;;-145.72;100.00
15914;BME280;8055;51.930;8.840;2023-02-11T01:18:56;78002.16;;;-145.72;100.00
15914;BME280;8055;51.930;8.840;2023-02-11T01:21:23;77998.00;;;-145.72;100.00
15914;BME280;8055;51.930;8.840;2023-02-11T01:23:48;77989.72;;;-145.72;100.00
15914;BME280;8055;51.930;8.840;2023-02-11T01:26:14;78000.06;;;-145.72;100.00
15914;BME280;8055;51.930;8.840;2023-02-11T01:28:39;78014.56;;;-145.72;100.00
15914;BME280;8055;51.930;8.840;2023-02-11T01:31:04;78018.72;;;-145.72;100.00
15914;BME280;8055;51.930;8.840;2023-02-11T01:33:30;78012.50;;;-145.72;100.00
15914;BME280;8055;51.930;8.840;2023-02-11T01:35:59;78008.34;;;-145.72;100.00
15914;BME280;8055;51.930;8.840;2023-02-11T01:38:25;78012.50;;;-145.72;100.00
15914;BME280;8055;51.930;8.840;2023-02-11T01:41:02;78020.78;;;-145.72;100.00
15914;BME280;8055;51.930;8.840;2023-02-11T01:43:33;78024.91;;;-145.72;100.00
15914;BME280;8055;51.930;8.840;2023-02-11T01:46:11;78008.34;;;-145.72;100.00
15914;BME280;8055;51.930;8.840;2023-02-11T01:48:41;78008.34;;;-145.72;100.00
15914;BME280;8055;51.930;8.840;2023-02-11T01:51:12;78004.22;;;-145.72;100.00
15914;BME280;8055;51.930;8.840;2023-02-11T01:53:39;78020.78;;;-145.72;100.00
15914;BME280;8055;51.930;8.840;2023-02-11T01:56:26;78022.84;;;-145.72;100.00
15914;BME280;8055;51.930;8.840;2023-02-11T01:59:24;78012.50;;;-145.72;100.00
15914;BME280;8055;51.930;8.840;2023-02-11T02:01:56;78008.34;;;-145.72;100.00
15914;BME280;8055;51.930;8.840;2023-02-11T02:04:24;78014.56;;;-145.72;100.00
15914;BME280;8055;51.930;8.840;2023-02-11T02:07:09;78008.34;;;-145.72;100.00
15914;BME280;8055;51.930;8.840;2023-02-11T02:09:41;78018.72;;;-145.72;100.00
15914;BME280;8055;51.930;8.840;2023-02-11T02:12:08;78027.00;;;-145.72;100.00
15914;BME280;8055;51.930;8.840;2023-02-11T02:14:38;78020.78;;;-145.72;100.00
15914;BME280;8055;51.930;8.840;2023-02-11T02:17:03;78027.00;;;-145.72;100.00
15914;BME280;8055;51.930;8.840;2023-02-11T02:20:19;78037.34;;;-145.72;100.00
15914;BME280;8055;51.930;8.840;2023-02-11T02:25:40;78010.44;;;-145.72;100.00
15914;BME280;8055;51.930;8.840;2023-02-11T02:28:36;78006.28;;;-145.72;100.00
15914;BME280;8055;51.930;8.840;2023-02-11T02:31:28;77993.84;;;-145.72;100.00
15914;BME280;8055;51.930;8.840;2023-02-11T02:34:05;77987.66;;;-145.72;100.00
15914;BME280;8055;51.930;8.840;2023-02-11T02:36:37;77983.50;;;-145.72;100.00
15914;BME280;8055;51.930;8.840;2023-02-11T02:39:10;77995.94;;;-145.72;100.00
15914;BME280;8055;51.930;8.840;2023-02-11T02:41:37;77987.66;;;-145.72;100.00
15914;BME280;8055;51.930;8.840;2023-02-11T02:44:03;77991.78;;;-145.72;100.00
15914;BME280;8055;51.930;8.840;2023-02-11T02:46:33;78004.22;;;-145.72;100.00
15914;BME280;8055;51.930;8.840;2023-02-11T02:48:59;78012.50;;;-145.72;100.00
15914;BME280;8055;51.930;8.840;2023-02-11T03:02:32;78024.91;;;-145.72;100.00
15914;BME280;8055;51.930;8.840;2023-02-11T03:08:06;78022.84;;;-145.72;100.00
15914;BME280;8055;51.930;8.840;2023-02-11T03:10:43;78022.84;;;-145.72;100.00
15914;BME280;8055;51.930;8.840;2023-02-11T03:13:10;78012.50;;;-145.72;100.00
15914;BME280;8055;51.930;8.840;2023-02-11T03:15:43;78014.56;;;-145.72;100.00
15914;BME280;8055;51.930;8.840;2023-02-11T03:18:11;78008.34;;;-145.72;100.00
15914;BME280;8055;51.930;8.840;2023-02-11T03:20:39;78006.28;;;-145.72;100.00
15914;BME280;8055;51.930;8.840;2023-02-11T03:23:36;78008.34;;;-145.72;100.00
15914;BME280;8055;51.930;8.840;2023-02-11T03:26:10;78014.56;;;-145.72;100.00
15914;BME280;8055;51.930;8.840;2023-02-11T03:28:51;78010.44;;;-145.72;100.00
15914;BME280;8055;51.930;8.840;2023-02-11T03:34:14;78002.16;;;-145.72;100.00
15914;BME280;8055;51.930;8.840;2023-02-11T03:36:52;78000.06;;;-145.72;100.00
15914;BME280;8055;51.930;8.840;2023-02-11T03:39:22;78006.28;;;-145.72;100.00
15914;BME280;8055;51.930;8.840;2023-02-11T03:41:50;77991.78;;;-145.72;100.00
15914;BME280;8055;51.930;8.840;2023-02-11T03:44:17;77993.84;;;-145.72;100.00
15914;BME280;8055;51.930;8.840;2023-02-11T03:46:48;77989.72;;;-145.72;100.00
15914;BME280;8055;51.930;8.840;2023-02-11T03:49:17;77987.66;;;-145.72;100.00
15914;BME280;8055;51.930;8.840;2023-02-11T03:51:45;77991.78;;;-145.72;100.00
15914;BME280;8055;51.930;8.840;2023-02-11T03:54:14;77995.94;;;-145.72;100.00
15914;BME280;8055;51.930;8.840;2023-02-11T03:56:48;77998.00;;;-145.72;100.00
15914;BME280;8055;51.930;8.840;2023-02-11T03:59:15;78006.28;;;-145.72;100.00
15914;BME280;8055;51.930;8.840;2023-02-11T04:01:41;78012.50;;;-145.72;100.00
15914;BME280;8055;51.930;8.840;2023-02-11T04:04:06;78014.56;;;-145.72;100.00
15914;BME280;8055;51.930;8.840;2023-02-11T04:06:31;78014.56;;;-145.72;100.00
15914;BME280;8055;51.930;8.840;2023-02-11T04:08:57;78018.72;;;-145.72;100.00
15914;BME280;8055;51.930;8.840;2023-02-11T04:11:22;78008.34;;;-145.72;100.00
15914;BME280;8055;51.930;8.840;2023-02-11T04:13:48;78008.34;;;-145.72;100.00
15914;BME280;8055;51.930;8.840;2023-02-11T04:16:13;78016.63;;;-145.72;100.00
15914;BME280;8055;51.930;8.840;2023-02-11T04:18:38;78000.06;;;-145.72;100.00
15914;BME280;8055;51.930;8.840;2023-02-11T04:21:04;78004.22;;;-145.72;100.00
15914;BME280;8055;51.930;8.840;2023-02-11T04:23:29;78010.44;;;-145.72;100.00
15914;BME280;8055;51.930;8.840;2023-02-11T04:25:54;77998.00;;;-145.72;100.00
15914;BME280;8055;51.930;8.840;2023-02-11T04:28:20;78000.06;;;-145.72;100.00
15914;BME280;8055;51.930;8.840;2023-02-11T04:30:45;78010.44;;;-145.72;100.00
15914;BME280;8055;51.930;8.840;2023-02-11T04:33:12;78010.44;;;-145.72;100.00
15914;BME280;8055;51.930;8.840;2023-02-11T04:35:38;78006.28;;;-145.72;100.00
15914;BME280;8055;51.930;8.840;2023-02-11T04:38:03;78002.16;;;-145.72;100.00
15914;BME280;8055;51.930;8.840;2023-02-11T04:40:28;77985.59;;;-145.72;100.00
15914;BME280;8055;51.930;8.840;2023-02-11T04:42:54;77981.44;;;-145.72;100.00
15914;BME280;8055;51.930;8.840;2023-02-11T04:45:19;78010.44;;;-145.72;100.00
15914;BME280;8055;51.930;8.840;2023-02-11T04:47:44;78000.06;;;-145.72;100.00
15914;BME280;8055;51.930;8.840;2023-02-11T04:50:10;77998.00;;;-145.72;100.00
15914;BME280;8055;51.930;8.840;2023-02-11T04:52:35;78000.06;;;-145.72;100.00
15914;BME280;8055;51.930;8.840;2023-02-11T04:55:01;78000.06;;;-145.72;100.00
15914;BME280;8055;51.930;8.840;2023-02-11T04:57:26;78000.06;;;-145.72;100.00
15914;BME280;8055;51.930;8.840;2023-02-11T04:59:51;77983.50;;;-145.72;100.00
15914;BME280;8055;51.930;8.840;2023-02-11T05:02:17;77993.84;;;-145.72;100.00
15914;BME280;8055;51.930;8.840;2023-02-11T05:04:42;77989.72;;;-145.72;100.00
15914;BME280;8055;51.930;8.840;2023-02-11T05:07:07;78000.06;;;-145.72;100.00
15914;BME280;8055;51.930;8.840;2023-02-11T05:09:33;78006.28;;;-145.72;100.00
15914;BME280;8055;51.930;8.840;2023-02-11T05:11:58;77998.00;;;-145.72;100.00
15914;BME280;8055;51.930;8.840;2023-02-11T05:14:23;77998.00;;;-145.72;100.00
15914;BME280;8055;51.930;8.840;2023-02-11T05:16:49;77993.84;;;-145.72;100.00
15914;BME280;8055;51.930;8.840;2023-02-11T05:19:14;77989.72;;;-145.72;100.00
15914;BME280;8055;51.930;8.840;2023-02-11T05:21:39;77991.78;;;-145.72;100.00
15914;BME280;8055;51.930;8.840;2023-02-11T05:24:06;78006.28;;;-145.72;100.00
15914;BME280;8055;51.930;8.840;2023-02-11T05:26:31;77991.78;;;-145.72;100.00
15914;BME280;8055;51.930;8.840;2023-02-11T05:28:57;77979.38;;;-145.72;100.00
15914;BME280;8055;51.930;8.840;2023-02-11T05:31:22;77981.44;;;-145.72;100.00
15914;BME280;8055;51.930;8.840;2023-02-11T05:33:47;77979.38;;;-145.72;100.00
15914;BME280;8055;51.930;8.840;2023-02-11T05:36:13;77975.22;;;-145.72;100.00
15914;BME280;8055;51.930;8.840;2023-02-11T05:38:38;77975.22;;;-145.72;100.00
15914;BME280;8055;51.930;8.840;2023-02-11T05:41:05;77964.88;;;-145.72;100.00
15914;BME280;8055;51.930;8.840;2023-02-11T05:43:31;77966.94;;;-145.72;100.00
15914;BME280;8055;51.930;8.840;2023-02-11T05:45:56;77985.59;;;-145.72;100.00
15914;BME280;8055;51.930;8.840;2023-02-11T05:48:22;77977.31;;;-145.72;100.00
15914;BME280;8055;51.930;8.840;2023-02-11T05:50:47;77962.81;;;-145.72;100.00
15914;BME280;8055;51.930;8.840;2023-02-11T05:53:12;77964.88;;;-145.72;100.00
15914;BME280;8055;51.930;8.840;2023-02-11T05:55:38;77973.16;;;-145.72;100.00
15914;BME280;8055;51.930;8.840;2023-02-11T05:58:04;77973.16;;;-145.72;100.00
15914;BME280;8055;51.930;8.840;2023-02-11T06:00:29;77964.88;;;-145.72;100.00
15914;BME280;8055;51.930;8.840;2023-02-11T06:02:55;77960.72;;;-145.72;100.00
15914;BME280;8055;51.930;8.840;2023-02-11T06:05:20;77971.09;;;-145.72;100.00
15914;BME280;8055;51.930;8.840;2023-02-11T06:07:46;77964.88;;;-145.72;100.00
15914;BME280;8055;51.930;8.840;2023-02-11T06:10:11;77975.22;;;-145.72;100.00
15914;BME280;8055;51.930;8.840;2023-02-11T06:12:37;77981.44;;;-145.72;100.00
15914;BME280;8055;51.930;8.840;2023-02-11T06:15:03;77975.22;;;-145.72;100.00
15914;BME280;8055;51.930;8.840;2023-02-11T06:17:29;77966.94;;;-145.72;100.00
15914;BME280;8055;51.930;8.840;2023-02-11T06:19:58;77971.09;;;-145.72;100.00
15914;BME280;8055;51.930;8.840;2023-02-11T06:22:25;77979.38;;;-145.72;100.00
15914;BME280;8055;51.930;8.840;2023-02-11T06:24:50;77981.44;;;-145.72;100.00
15914;BME280;8055;51.930;8.840;2023-02-11T06:27:16;77964.88;;;-145.72;100.00
15914;BME280;8055;51.930;8.840;2023-02-11T06:29:44;77977.31;;;-145.72;100.00
15914;BME280;8055;51.930;8.840;2023-02-11T06:32:09;77966.94;;;-145.72;100.00
15914;BME280;8055;51.930;8.840;2023-02-11T06:34:34;77971.09;;;-145.72;100.00
15914;BME280;8055;51.930;8.840;2023-02-11T06:37:00;77973.16;;;-145.72;100.00
15914;BME280;8055;51.930;8.840;2023-02-11T06:39:25;77975.22;;;-145.72;100.00
15914;BME280;8055;51.930;8.840;2023-02-11T06:41:50;77969.03;;;-145.72;100.00
15914;BME280;8055;51.930;8.840;2023-02-11T06:44:16;77964.88;;;-145.72;100.00
15914;BME280;8055;51.930;8.840;2023-02-11T06:46:41;77960.72;;;-145.72;100.00
15914;BME280;8055;51.930;8.840;2023-02-11T06:49:06;77964.88;;;-145.72;100.00
15914;BME280;8055;51.930;8.840;2023-02-11T06:51:32;77960.72;;;-145.72;100.00
15914;BME280;8055;51.930;8.840;2023-02-11T06:53:57;77969.03;;;-145.72;100.00
15914;BME280;8055;51.930;8.840;2023-02-11T06:56:23;77966.94;;;-145.72;100.00
15914;BME280;8055;51.930;8.840;2023-02-11T06:58:52;77966.94;;;-145.72;100.00
15914;BME280;8055;51.930;8.840;2023-02-11T07:01:20;77964.88;;;-145.72;100.00
15914;BME280;8055;51.930;8.840;2023-02-11T07:03:45;77954.53;;;-145.72;100.00
15914;BME280;8055;51.930;8.840;2023-02-11T07:06:14;77977.31;;;-145.72;100.00
15914;BME280;8055;51.930;8.840;2023-02-11T07:08:40;77971.09;;;-145.72;100.00
15914;BME280;8055;51.930;8.840;2023-02-11T07:11:15;77966.94;;;-145.72;100.00
15914;BME280;8055;51.930;8.840;2023-02-11T07:13:41;77964.88;;;-145.72;100.00
15914;BME280;8055;51.930;8.840;2023-02-11T07:16:08;77971.09;;;-145.72;100.00
15914;BME280;8055;51.930;8.840;2023-02-11T07:18:34;77981.44;;;-145.72;100.00
15914;BME280;8055;51.930;8.840;2023-02-11T07:21:04;77969.03;;;-145.72;100.00
15914;BME280;8055;51.930;8.840;2023-02-11T07:23:29;77973.16;;;-145.72;100.00
15914;BME280;8055;51.930;8.840;2023-02-11T07:25:55;77969.03;;;-145.72;100.00
15914;BME280;8055;51.930;8.840;2023-02-11T07:28:20;77964.88;;;-145.72;100.00
15914;BME280;8055;51.930;8.840;2023-02-11T07:30:46;77962.81;;;-145.72;100.00
15914;BME280;8055;51.930;8.840;2023-02-11T07:33:11;77971.09;;;-145.72;100.00
15914;BME280;8055;51.930;8.840;2023-02-11T07:35:36;77969.03;;;-145.72;100.00
15914;BME280;8055;51.930;8.840;2023-02-11T07:38:02;77975.22;;;-145.72;100.00
15914;BME280;8055;51.930;8.840;2023-02-11T07:40:27;77962.81;;;-145.72;100.00
15914;BME280;8055;51.930;8.840;2023-02-11T07:42:53;77977.31;;;-145.72;100.00
15914;BME280;8055;51.930;8.840;2023-02-11T07:45:18;77960.72;;;-145.72;100.00
15914;BME280;8055;51.930;8.840;2023-02-11T07:47:44;77966.94;;;-145.72;100.00
15914;BME280;8055;51.930;8.840;2023-02-11T07:50:09;77964.88;;;-145.72;100.00
15914;BME280;8055;51.930;8.840;2023-02-11T07:52:35;77954.53;;;-145.72;100.00
15914;BME280;8055;51.930;8.840;2023-02-11T07:55:00;77948.31;;;-145.72;100.00
15914;BME280;8055;51.930;8.840;2023-02-11T07:57:26;77964.88;;;-145.72;100.00
15914;BME280;8055;51.930;8.840;2023-02-11T07:59:52;77971.09;;;-145.72;100.00
15914;BME280;8055;51.930;8.840;2023-02-11T08:02:17;77971.09;;;-145.72;100.00
15914;BME280;8055;51.930;8.840;2023-02-11T08:04:44;77960.72;;;-145.72;100.00
15914;BME280;8055;51.930;8.840;2023-02-11T08:07:13;77977.31;;;-145.72;100.00
15914;BME280;8055;51.930;8.840;2023-02-11T08:09:39;77977.31;;;-145.72;100.00
15914;BME280;8055;51.930;8.840;2023-02-11T08:12:04;77971.09;;;-145.72;100.00
15914;BME280;8055;51.930;8.840;2023-02-11T08:14:30;77973.16;;;-145.72;100.00
15914;BME280;8055;51.930;8.840;2023-02-11T08:16:57;77973.16;;;-145.72;100.00
15914;BME280;8055;51.930;8.840;2023-02-11T08:19:22;77960.72;;;-145.72;100.00
15914;BME280;8055;51.930;8.840;2023-02-11T08:21:47;77971.09;;;-145.72;100.00
15914;BME280;8055;51.930;8.840;2023-02-11T08:24:13;77969.03;;;-145.72;100.00
15914;BME280;8055;51.930;8.840;2023-02-11T08:26:38;77975.22;;;-145.72;100.00
15914;BME280;8055;51.930;8.840;2023-02-11T08:29:11;77956.59;;;-145.72;100.00
15914;BME280;8055;51.930;8.840;2023-02-11T08:31:40;77964.88;;;-145.72;100.00
15914;BME280;8055;51.930;8.840;2023-02-11T08:34:06;77981.44;;;-145.72;100.00
15914;BME280;8055;51.930;8.840;2023-02-11T08:36:33;77971.09;;;-145.72;100.00
15914;BME280;8055;51.930;8.840;2023-02-11T08:39:01;77973.16;;;-145.72;100.00
15914;BME280;8055;51.930;8.840;2023-02-11T08:41:29;77979.38;;;-145.72;100.00
15914;BME280;8055;51.930;8.840;2023-02-11T08:43:54;77964.88;;;-145.72;100.00
15914;BME280;8055;51.930;8.840;2023-02-11T08:46:20;77975.22;;;-145.72;100.00
15914;BME280;8055;51.930;8.840;2023-02-11T08:48:46;77969.03;;;-145.72;100.00
15914;BME280;8055;51.930;8.840;2023-02-11T08:51:19;77975.22;;;-145.72;100.00
15914;BME280;8055;51.930;8.840;2023-02-11T08:53:45;77971.09;;;-145.72;100.00
15914;BME280;8055;51.930;8.840;2023-02-11T08:56:11;77981.44;;;-145.72;100.00
15914;BME280;8055;51.930;8.840;2023-02-11T08:58:37;77983.50;;;-145.72;100.00
15914;BME280;8055;51.930;8.840;2023-02-11T09:01:15;77983.50;;;-145.72;100.00
15914;BME280;8055;51.930;8.840;2023-02-11T09:03:41;77977.31;;;-145.72;100.00
15914;BME280;8055;51.930;8.840;2023-02-11T09:06:07;77969.03;;;-145.72;100.00
15914;BME280;8055;51.930;8.840;2023-02-11T09:08:36;77966.94;;;-145.72;100.00
15914;BME280;8055;51.930;8.840;2023-02-11T09:11:02;77966.94;;;-145.72;100.00
15914;BME280;8055;51.930;8.840;2023-02-11T09:13:28;77995.94;;;-145.72;100.00
15914;BME280;8055;51.930;8.840;2023-02-11T09:15:53;77977.31;;;-145.72;100.00
15914;BME280;8055;51.930;8.840;2023-02-11T09:18:19;77985.59;;;-145.72;100.00
15914;BME280;8055;51.930;8.840;2023-02-11T09:20:44;77991.78;;;-145.72;100.00
15914;BME280;8055;51.930;8.840;2023-02-11T09:23:09;77987.66;;;-145.72;100.00
15914;BME280;8055;51.930;8.840;2023-02-11T09:25:38;77989.72;;;-145.72;100.00
15914;BME280;8055;51.930;8.840;2023-02-11T09:28:04;77995.94;;;-145.72;100.00
15914;BME280;8055;51.930;8.840;2023-02-11T09:30:29;78000.06;;;-145.72;100.00
15914;BME280;8055;51.930;8.840;2023-02-11T09:32:55;77987.66;;;-145.72;100.00
15914;BME280;8055;51.930;8.840;2023-02-11T09:35:20;77981.44;;;-145.72;100.00
15914;BME280;8055;51.930;8.840;2023-02-11T09:37:45;77987.66;;;-145.72;100.00
15914;BME280;8055;51.930;8.840;2023-02-11T09:40:12;77989.72;;;-145.72;100.00
15914;BME280;8055;51.930;8.840;2023-02-11T09:42:45;77985.59;;;-145.72;100.00
15914;BME280;8055;51.930;8.840;2023-02-11T09:45:18;77985.59;;;-145.72;100.00
15914;BME280;8055;51.930;8.840;2023-02-11T09:47:51;77991.78;;;-145.72;100.00
15914;BME280;8055;51.930;8.840;2023-02-11T09:50:24;77993.84;;;-145.72;100.00
15914;BME280;8055;51.930;8.840;2023-02-11T09:55:39;78000.06;;;-145.72;100.00
15914;BME280;8055;51.930;8.840;2023-02-11T09:58:15;78006.28;;;-145.72;100.00
15914;BME280;8055;51.930;8.840;2023-02-11T10:00:47;78004.22;;;-145.72;100.00
15914;BME280;8055;51.930;8.840;2023-02-11T10:11:39;78000.06;;;-145.72;100.00
15914;BME280;8055;51.930;8.840;2023-02-11T10:17:18;77991.78;;;-145.72;100.00
15914;BME280;8055;51.930;8.840;2023-02-11T10:20:07;77998.00;;;-145.72;100.00
15914;BME280;8055;51.930;8.840;2023-02-11T10:22:46;77987.66;;;-145.72;100.00
15914;BME280;8055;51.930;8.840;2023-02-11T10:25:20;77985.59;;;-145.72;100.00
15914;BME280;8055;51.930;8.840;2023-02-11T10:27:47;77993.84;;;-145.72;100.00
15914;BME280;8055;51.930;8.840;2023-02-11T10:33:27;78008.34;;;-145.72;100.00
15914;BME280;8055;51.930;8.840;2023-02-11T10:35:54;78006.28;;;-145.72;100.00
15914;BME280;8055;51.930;8.840;2023-02-11T10:38:20;78018.72;;;-145.72;100.00
15914;BME280;8055;51.930;8.840;2023-02-11T10:40:45;78020.78;;;-145.72;100.00
15914;BME280;8055;51.930;8.840;2023-02-11T10:43:13;78016.63;;;-145.72;100.00
15914;BME280;8055;51.930;8.840;2023-02-11T10:45:47;78022.84;;;-145.72;100.00
15914;BME280;8055;51.930;8.840;2023-02-11T10:48:39;78018.72;;;-145.72;100.00
15914;BME280;8055;51.930;8.840;2023-02-11T10:51:11;78014.56;;;-145.72;100.00
15914;BME280;8055;51.930;8.840;2023-02-11T10:53:37;78010.44;;;-145.72;100.00
15914;BME280;8055;51.930;8.840;2023-02-11T10:56:03;78010.44;;;-145.72;100.00
15914;BME280;8055;51.930;8.840;2023-02-11T10:58:57;78008.34;;;-145.72;100.00
15914;BME280;8055;51.930;8.840;2023-02-11T11:01:46;78000.06;;;-145.72;100.00
15914;BME280;8055;51.930;8.840;2023-02-11T11:07:12;77993.84;;;-145.72;100.00
15914;BME280;8055;51.930;8.840;2023-02-11T11:12:45;77989.72;;;-145.72;100.00
15914;BME280;8055;51.930;8.840;2023-02-11T11:17:43;77979.38;;;-145.72;100.00
15914;BME280;8055;51.930;8.840;2023-02-11T11:20:25;77971.09;;;-145.72;100.00
15914;BME280;8055;51.930;8.840;2023-02-11T11:23:09;77969.03;;;-145.72;100.00
15914;BME280;8055;51.930;8.840;2023-02-11T11:25:41;77966.94;;;-145.72;100.00
15914;BME280;8055;51.930;8.840;2023-02-11T11:28:19;77971.09;;;-145.72;100.00
15914;BME280;8055;51.930;8.840;2023-02-11T11:30:45;77977.31;;;-145.72;100.00
15914;BME280;8055;51.930;8.840;2023-02-11T11:33:22;77969.03;;;-145.72;100.00
15914;BME280;8055;51.930;8.840;2023-02-11T11:36:08;77971.09;;;-145.72;100.00
15914;BME280;8055;51.930;8.840;2023-02-11T11:38:36;77971.09;;;-145.72;100.00
15914;BME280;8055;51.930;8.840;2023-02-11T11:43:38;77960.72;;;-145.72;100.00
15914;BME280;8055;51.930;8.840;2023-02-11T11:46:04;77964.88;;;-145.72;100.00
15914;BME280;8055;51.930;8.840;2023-02-11T11:48:33;77952.44;;;-145.72;100.00
15914;BME280;8055;51.930;8.840;2023-02-11T11:51:04;77954.53;;;-145.72;100.00
15914;BME280;8055;51.930;8.840;2023-02-11T11:58:33;77950.38;;;-145.72;100.00
15914;BME280;8055;51.930;8.840;2023-02-11T12:06:38;77933.81;;;-145.72;100.00
15914;BME280;8055;51.930;8.840;2023-02-11T12:11:56;77929.69;;;-145.72;100.00
15914;BME280;8055;51.930;8.840;2023-02-11T12:17:32;77933.81;;;-145.72;100.00
15914;BME280;8055;51.930;8.840;2023-02-11T12:20:15;77937.97;;;-145.72;100.00
15914;BME280;8055;51.930;8.840;2023-02-11T12:22:53;77927.59;;;-145.72;100.00
15914;BME280;8055;51.930;8.840;2023-02-11T12:25:42;77927.59;;;-145.72;100.00
15914;BME280;8055;51.930;8.840;2023-02-11T12:31:18;77927.59;;;-145.72;100.00
15914;BME280;8055;51.930;8.840;2023-02-11T12:36:55;77931.75;;;-145.72;100.00
15914;BME280;8055;51.930;8.840;2023-02-11T12:42:21;77925.53;;;-145.72;100.00
15914;BME280;8055;51.930;8.840;2023-02-11T12:50:53;77923.47;;;-145.72;100.00
15914;BME280;8055;51.930;8.840;2023-02-11T12:56:17;77913.13;;;-145.72;100.00
15914;BME280;8055;51.930;8.840;2023-02-11T12:58:46;77915.19;;;-145.72;100.00
15914;BME280;8055;51.930;8.840;2023-02-11T13:01:31;77908.97;;;-145.72;100.00
15914;BME280;8055;51.930;8.840;2023-02-11T13:04:07;77923.47;;;-145.72;100.00
15914;BME280;8055;51.930;8.840;2023-02-11T13:07:04;77919.31;;;-145.72;100.00
15914;BME280;8055;51.930;8.840;2023-02-11T13:09:41;77935.91;;;-145.72;100.00
15914;BME280;8055;51.930;8.840;2023-02-11T13:12:11;77925.53;;;-145.72;100.00
15914;BME280;8055;51.930;8.840;2023-02-11T13:15:01;77923.47;;;-145.72;100.00
15914;BME280;8055;51.930;8.840;2023-02-11T13:17:40;77921.41;;;-145.72;100.00
15914;BME280;8055;51.930;8.840;2023-02-11T13:20:40;77913.13;;;-145.72;100.00
15914;BME280;8055;51.930;8.840;2023-02-11T13:23:15;77917.25;;;-145.72;100.00
15914;BME280;8055;51.930;8.840;2023-02-11T13:28:31;77908.97;;;-145.72;100.00
15914;BME280;8055;51.930;8.840;2023-02-11T13:31:01;77913.13;;;-145.72;100.00
15914;BME280;8055;51.930;8.840;2023-02-11T13:38:29;77892.41;;;-145.72;100.00
15914;BME280;8055;51.930;8.840;2023-02-11T13:43:34;77896.56;;;-145.72;100.00
15914;BME280;8055;51.930;8.840;2023-02-11T13:46:02;77886.19;;;-145.72;100.00
15914;BME280;8055;51.930;8.840;2023-02-11T13:48:35;77877.91;;;-145.72;100.00
15914;BME280;8055;51.930;8.840;2023-02-11T13:51:05;77880.00;;;-145.72;100.00
15914;BME280;8055;51.930;8.840;2023-02-11T13:53:49;77871.72;;;-145.72;100.00
15914;BME280;8055;51.930;8.840;2023-02-11T13:56:41;77882.06;;;-145.72;100.00
15914;BME280;8055;51.930;8.840;2023-02-11T14:02:05;77884.13;;;-145.72;100.00
15914;BME280;8055;51.930;8.840;2023-02-11T14:10:56;77882.06;;;-145.72;100.00
15914;BME280;8055;51.930;8.840;2023-02-11T14:13:31;77880.00;;;-145.72;100.00
15914;BME280;8055;51.930;8.840;2023-02-11T14:16:13;77877.91;;;-145.72;100.00
15914;BME280;8055;51.930;8.840;2023-02-11T14:23:38;77873.78;;;-145.72;100.00
15914;BME280;8055;51.930;8.840;2023-02-11T14:28:47;77867.56;;;-145.72;100.00
15914;BME280;8055;51.930;8.840;2023-02-11T14:31:40;77844.78;;;-145.72;100.00
15914;BME280;8055;51.930;8.840;2023-02-11T14:34:38;77851.00;;;-145.72;100.00
15914;BME280;8055;51.930;8.840;2023-02-11T14:37:15;77863.44;;;-145.72;100.00
15914;BME280;8055;51.930;8.840;2023-02-11T14:42:19;77853.06;;;-145.72;100.00
15914;BME280;8055;51.930;8.840;2023-02-11T14:44:50;77840.66;;;-145.72;100.00